Terminal Aerodrome Forecast
Issued by NWS

Home | Current Version | Previous Version | Text Only | Print | Product List | Glossary On
Versions: 1 2 3 4 5 6 7 8 9 10 11 12 13 14
000
FTUS43 KIWX 281100
TAFSBN
TAF
KSBN 281121Z 2812/0112 23003KT P6SM SCT100
     FM281400 18006KT P6SM SCT025 BKN100
     FM010300 16005KT 5SM -SN BKN025 OVC040
     FM010800 17004KT 4SM -SN OVC015=

USA.gov is the U.S. government's official web portal to all federal, state and local government web resources and services.